Sule Skerry, United Kingdom
Current Conditions -  °F | °C
As of 9:50 AM on Tuesday 21 Oct 2014 (Local Time) from EGPA Reporting Station
Moderate Rain Moderate Rain  
Wind Chill: 37°   Ceiling: 2000
Heat Index: 46°   Visibility: 4mi
Dew Point: 43°   Wind: 29mph
Humidity: 87%   Direction: 300°WNW
Pressure: 29.03"   Gusts: NA
Location:  59.08°N, 4.4°W
Report Text: EGPA 210850Z 30025KT 7000 RA SCT010 SCT015 BKN020 08/06 Q0983
Loading
Personal Weather Stations






























Interactive Weather Map
Tropical Storm Tracking
New forecast layout! Learn more

10-Day Weather Forecast

Advertisements
Track Severe Weather on mobile